Oldenburg, Mississippi
Current Conditions -  °F | °C
As of 4:55 PM on Wednesday 22 Oct 2014 (Local Time) from KHEZ Reporting Station
Clear Clear  
Wind Chill: 23°   Ceiling: Unl
Heat Index: 23°   Visibility: 5mi
Dew Point: 11°   Wind: 9mph
Humidity: 47%   Direction: 350°N
Pressure: 30.08"   Gusts: NA
Location:  31.4774°N, 91.0619°W
Report Text: KHEZ 222155Z AUTO 35008KT 5SM CLR 23/11 A3008 RMK AO1
Loading
Personal Weather Stations






























Interactive Weather Map
Tropical Storm Tracking
New forecast layout! Learn more

10-Day Weather Forecast

Advertisements
Track Severe Weather on mobile